FW0521 Weather Reports


Display with metric or nautical units.
time (UTC)temp
F
wind
direction
speed
MPH
gust
MPH
rain 1hr
in
rain 24hr
in
rain mn
in
humidity
%
barometer
mb
20190625110017 64 0.0 2.0 0.00 0.00 0.00 66 1006.2
20190625053017 75 0.0 5.0 0.00 0.00 0.00 50 1007.0
20190625050017 77 0.0 2.0 0.00 0.00 0.00 48 1006.6
20190625043018 78 0.0 3.0 0.00 0.00 0.00 46 1006.1
20190625040017 81 0.0 5.0 0.00 0.00 0.00 45 1006.1
20190625033017 84 180 2.0 5.0 0.00 0.00 0.00 40 1006.1
20190625030017 86 180 2.0 6.0 0.00 0.00 0.00 38 1006.0
20190625023017 88 202 3.0 7.0 0.00 0.00 0.00 33 1005.9
20190625020017 90 202 3.0 8.0 0.00 0.00 0.00 30 1005.8
20190625013017 92 180 2.0 9.0 0.00 0.00 0.00 30 1005.9
20190625010017 93 157 2.0 8.0 0.00 0.00 0.00 31 1005.9
20190625003017 95 225 2.0 9.0 0.00 0.00 0.00 28 1006.2
20190625000016 98 225 2.0 6.0 0.00 0.00 0.00 23 1006.2
20190624233016 98 157 2.0 7.0 0.00 0.00 0.00 25 1006.3
20190624230017 98 157 2.0 7.0 0.00 0.00 0.00 27 1006.6
20190624223017 97 180 2.0 7.0 0.00 0.00 0.00 26 1007.0
20190624220017 95 202 2.0 7.0 0.00 0.00 0.00 26 1007.4
20190624213017 95 180 2.0 6.0 0.00 0.00 0.00 28 1007.8
20190624210017 94 157 2.0 9.0 0.00 0.00 0.00 33 1008.1
20190624203016 92 180 2.0 8.0 0.00 0.00 0.00 36 1008.4
20190624200016 91 180 2.0 7.0 0.00 0.00 0.00 35 1008.6
20190624193016 90 202 2.0 6.0 0.00 0.00 0.00 35 1009.0
20190624190017 89 180 2.0 8.0 0.00 0.00 0.00 34 1009.2
20190624183016 86 225 2.0 7.0 0.00 0.00 0.00 38 1009.3
20190624180016 84 180 2.0 7.0 0.00 0.00 0.00 41 1009.5
20190624173016 82 180 2.0 6.0 0.00 0.00 0.00 45 1009.5
20190624170016 80 180 1.0 5.0 0.00 0.00 0.00 44 1009.4
20190624163018 78 90 1.0 5.0 0.00 0.00 0.00 49 1009.6
20190624160018 76 67 1.0 9.0 0.00 0.00 0.00 48 1009.5
20190624153018 74 90 1.0 5.0 0.00 0.00 0.00 52 1009.4
20190624150018 71 157 1.0 5.0 0.00 0.00 0.00 54 1009.6
20190624143018 68 0.0 3.0 0.00 0.00 0.00 62 1009.7
20190624140018 65 0.0 3.0 0.00 0.00 0.00 67 1009.5
20190624133018 63 0.0 1.0 0.00 0.00 0.00 69 1009.3
20190624130017 63 0.0 2.0 0.00 0.00 0.00 67 1009.0
20190624123018 64 0.0 1.0 0.00 0.00 0.00 64 1009.0
20190624120017 64 0.0 1.0 0.00 0.00 0.00 63 1008.9
20190624113018 65 0.0 0.0 0.00 0.00 0.00 60 1008.9